weather.gov     
National Weather Service

Terminal Aerodrome Forecast
NWS Homepage
This page is being discontinued on March 12, 2014.
The same data is available at this site. Please update your bookmarks.
Thank you, and we apologize for the inconvenience.
Please send an email to SR-SRH.Webmaster@noaa.gov with any concerns.


Current Version
Previous Version:    01  02  03  04  05  06  07  08  09  10  11  12  13  14  15  16  17  18  19  20  21  22  23  24  25  26  27  
[Printable]
743
FTUS43 KDTX 272320
TAFFNT
TAF
KFNT 272320Z 2800/2824 31014KT P6SM SCT028 OVC040
     FM280200 30008KT P6SM SCT045 BKN200
     FM281400 24006KT P6SM OVC120
     FM281900 19008KT 6SM -SN BKN040 OVC080
     FM282200 19006KT 1SM -SN BR BKN012 OVC030=




743
FTUS43 KDTX 272320
TAFFNT
TAF
KFNT 272320Z 2800/2824 31014KT P6SM SCT028 OVC040
     FM280200 30008KT P6SM SCT045 BKN200
     FM281400 24006KT P6SM OVC120
     FM281900 19008KT 6SM -SN BKN040 OVC080
     FM282200 19006KT 1SM -SN BR BKN012 OVC030=


U.S. Dept. of Commerce
NOAA National Weather Service
1325 East West Highway
Silver Spring, MD 20910
E-mail: w-nws.webmaster@noaa.gov
Page last modified: May 16, 2007
NATIONAL WEATHER SERVICE: for Safety, for Work, for Fun - FOR LIFE